createdAt,value
2022-10-05T00:01:28.032Z,10.22
2022-10-05T00:03:54.455Z,10.13
2022-10-05T00:06:20.781Z,9.88
2022-10-05T00:08:47.224Z,9.85
2022-10-05T00:11:13.701Z,9.99
2022-10-05T00:13:42.152Z,9.98
2022-10-05T00:16:08.936Z,10.01
2022-10-05T00:18:35.296Z,10.04
2022-10-05T00:21:01.607Z,10.12
2022-10-05T00:23:28.123Z,10.13
2022-10-05T00:25:54.539Z,10.19
2022-10-05T00:28:20.949Z,10.20
2022-10-05T00:30:47.575Z,10.04
2022-10-05T00:33:13.898Z,9.96
2022-10-05T00:35:40.240Z,9.99
2022-10-05T00:38:07.226Z,9.99
2022-10-05T00:40:33.556Z,9.98
2022-10-05T00:42:59.943Z,9.99
2022-10-05T00:45:26.397Z,9.93
2022-10-05T00:47:53.133Z,9.94
2022-10-05T00:50:19.530Z,9.92
2022-10-05T00:52:46.079Z,9.95
2022-10-05T00:55:12.444Z,10.00
2022-10-05T00:57:38.888Z,9.86
2022-10-05T01:00:05.445Z,9.85
2022-10-05T01:02:36.495Z,9.79
2022-10-05T01:07:38.711Z,9.80
2022-10-05T01:10:05.097Z,9.77
2022-10-05T01:12:31.709Z,9.79
2022-10-05T01:14:58.290Z,9.81
2022-10-05T01:17:24.616Z,9.84
2022-10-05T01:19:51.027Z,9.86
2022-10-05T01:22:17.722Z,9.85
2022-10-05T01:24:44.086Z,9.81
2022-10-05T01:27:10.512Z,9.67
2022-10-05T01:29:37.067Z,9.69
2022-10-05T01:32:05.914Z,9.71
2022-10-05T01:34:32.452Z,9.73
2022-10-05T01:36:59.073Z,9.73
2022-10-05T01:39:25.616Z,9.74
2022-10-05T01:41:52.259Z,9.71
2022-10-05T01:44:18.659Z,9.69
2022-10-05T01:46:45.404Z,9.69
2022-10-05T01:49:13.469Z,9.68
2022-10-05T01:51:40.020Z,9.61
2022-10-05T01:54:06.415Z,9.62
2022-10-05T01:56:32.977Z,9.58
2022-10-05T01:58:59.849Z,9.56
2022-10-05T02:01:26.358Z,9.55
2022-10-05T02:03:52.778Z,9.55
2022-10-05T02:06:19.252Z,9.51
2022-10-05T02:08:45.725Z,9.44
2022-10-05T02:11:12.068Z,9.47
2022-10-05T02:13:38.486Z,9.46
2022-10-05T02:16:04.959Z,9.38
2022-10-05T02:18:31.409Z,9.30
2022-10-05T02:20:57.936Z,8.94
2022-10-05T02:23:24.379Z,8.92
2022-10-05T02:25:50.765Z,8.86
2022-10-05T02:28:17.370Z,8.84
2022-10-05T02:30:43.804Z,8.81
2022-10-05T02:33:10.204Z,8.92
2022-10-05T02:35:36.568Z,8.98
2022-10-05T02:38:02.988Z,8.94
2022-10-05T02:40:29.386Z,8.89
2022-10-05T02:42:55.912Z,8.95
2022-10-05T02:45:22.385Z,8.74
2022-10-05T02:47:48.757Z,8.79
2022-10-05T02:50:15.204Z,8.89
2022-10-05T02:52:41.569Z,8.97
2022-10-05T02:55:08.245Z,8.99
2022-10-05T02:57:34.691Z,8.98
2022-10-05T03:00:01.123Z,8.98
2022-10-05T03:02:27.763Z,8.95
2022-10-05T03:04:54.370Z,8.84
2022-10-05T03:07:20.916Z,8.86
2022-10-05T03:09:47.460Z,8.88
2022-10-05T03:12:13.886Z,8.46
2022-10-05T03:14:40.272Z,8.36
2022-10-05T03:17:06.617Z,8.45
2022-10-05T03:19:33.143Z,8.57
2022-10-05T03:21:59.706Z,8.64
2022-10-05T03:24:26.090Z,8.71
2022-10-05T03:26:52.451Z,8.65
2022-10-05T03:29:18.775Z,8.65
2022-10-05T03:31:45.348Z,8.31
2022-10-05T03:34:11.867Z,8.41
2022-10-05T03:36:38.411Z,8.55
2022-10-05T03:39:04.790Z,8.57
2022-10-05T03:41:31.250Z,8.57
2022-10-05T03:43:57.575Z,8.43
2022-10-05T03:46:24.005Z,8.45
2022-10-05T03:48:50.683Z,8.53
2022-10-05T03:51:17.088Z,8.50
2022-10-05T03:53:43.420Z,8.52
2022-10-05T03:56:09.750Z,8.54
2022-10-05T03:58:36.099Z,8.51
2022-10-05T04:01:02.457Z,8.56
2022-10-05T04:03:28.888Z,8.60
2022-10-05T04:05:55.281Z,8.63
2022-10-05T04:08:21.692Z,8.57
2022-10-05T04:10:48.108Z,8.58
2022-10-05T04:13:14.640Z,8.38
2022-10-05T04:15:41.157Z,8.22
2022-10-05T04:18:08.317Z,8.21
2022-10-05T04:20:34.675Z,8.12
2022-10-05T04:23:01.102Z,7.92
2022-10-05T04:25:27.739Z,8.12
2022-10-05T04:27:54.230Z,8.22
2022-10-05T04:30:20.573Z,8.23
2022-10-05T04:32:47.154Z,8.23
2022-10-05T04:35:13.505Z,8.13
2022-10-05T04:37:43.221Z,7.92
2022-10-05T04:40:15.339Z,7.86
2022-10-05T04:42:41.688Z,7.89
2022-10-05T04:45:08.058Z,7.88
2022-10-05T04:47:34.498Z,7.94
2022-10-05T04:50:00.833Z,7.90
2022-10-05T04:52:27.631Z,8.08
2022-10-05T04:54:54.302Z,8.04
2022-10-05T04:57:20.750Z,8.06
2022-10-05T04:59:47.117Z,8.06
2022-10-05T05:02:13.684Z,8.15
2022-10-05T05:04:40.036Z,8.20
2022-10-05T05:07:06.625Z,8.15
2022-10-05T05:09:33.357Z,8.12
2022-10-05T05:11:59.949Z,8.01
2022-10-05T05:14:26.525Z,7.96
2022-10-05T05:16:53.101Z,8.07
2022-10-05T05:19:19.444Z,7.89
2022-10-05T05:21:45.926Z,7.95
2022-10-05T05:24:12.656Z,8.07
2022-10-05T05:26:39.236Z,8.18
2022-10-05T05:29:05.823Z,8.25
2022-10-05T05:31:32.553Z,8.26
2022-10-05T05:33:58.949Z,8.33
2022-10-05T05:36:25.337Z,8.38
2022-10-05T05:38:52.406Z,8.43
2022-10-05T05:41:18.970Z,8.44
2022-10-05T05:43:45.446Z,8.42
2022-10-05T05:46:11.830Z,8.49
2022-10-05T05:48:38.456Z,8.57
2022-10-05T05:51:04.899Z,8.54
2022-10-05T05:53:31.465Z,8.57
2022-10-05T05:55:58.103Z,8.54
2022-10-05T05:58:24.671Z,8.55
2022-10-05T06:00:51.309Z,8.57
2022-10-05T06:03:17.725Z,8.63
2022-10-05T06:05:44.172Z,8.67
2022-10-05T06:08:10.580Z,8.67
2022-10-05T06:10:36.987Z,8.68
2022-10-05T06:13:05.391Z,8.68
2022-10-05T06:15:31.892Z,8.71
2022-10-05T06:17:58.261Z,8.79
2022-10-05T06:20:24.628Z,8.85
2022-10-05T06:22:51.167Z,8.84
2022-10-05T06:25:17.600Z,8.93
2022-10-05T06:27:43.928Z,8.97
2022-10-05T06:30:10.337Z,8.96
2022-10-05T06:32:36.771Z,8.91
2022-10-05T06:35:03.162Z,8.95
2022-10-05T06:37:29.648Z,8.99
2022-10-05T06:40:00.783Z,9.09
2022-10-05T06:42:29.742Z,9.09
2022-10-05T06:44:56.359Z,9.05
2022-10-05T06:47:22.737Z,8.98
2022-10-05T06:49:49.151Z,9.02
2022-10-05T06:52:16.141Z,9.11
2022-10-05T06:54:42.551Z,9.14
2022-10-05T06:57:08.958Z,9.21
2022-10-05T06:59:35.419Z,9.28
2022-10-05T07:02:01.905Z,9.37
2022-10-05T07:04:29.217Z,9.45
2022-10-05T07:06:57.768Z,9.44
2022-10-05T07:09:24.158Z,9.45
2022-10-05T07:11:56.376Z,9.44
2022-10-05T07:14:25.085Z,9.47
2022-10-05T07:16:51.461Z,9.47
2022-10-05T07:19:17.902Z,9.53
2022-10-05T07:21:44.997Z,9.62
2022-10-05T07:24:11.795Z,9.33
2022-10-05T07:26:38.275Z,9.42
2022-10-05T07:29:04.674Z,9.58
2022-10-05T07:31:31.033Z,9.68
2022-10-05T07:33:57.427Z,9.78
2022-10-05T07:36:23.979Z,9.75
2022-10-05T07:38:50.341Z,9.94
2022-10-05T07:41:16.752Z,10.04
2022-10-05T07:46:30.445Z,10.17
2022-10-05T07:48:57.199Z,10.13
2022-10-05T07:51:23.720Z,10.21
2022-10-05T07:53:50.098Z,10.31
2022-10-05T07:56:16.658Z,10.43
2022-10-05T07:58:43.015Z,10.41
2022-10-05T08:01:09.545Z,10.42
2022-10-05T08:03:36.405Z,10.39
2022-10-05T08:06:02.893Z,10.63
2022-10-05T08:08:29.395Z,10.80
2022-10-05T08:10:56.110Z,10.97
2022-10-05T08:13:22.805Z,10.95
2022-10-05T08:15:49.213Z,11.18
2022-10-05T08:18:16.202Z,11.35
2022-10-05T08:20:42.609Z,11.43
2022-10-05T08:23:09.187Z,11.58
2022-10-05T08:25:35.910Z,11.67
2022-10-05T08:28:02.331Z,11.86
2022-10-05T08:30:28.729Z,12.03
2022-10-05T08:32:55.358Z,12.00
2022-10-05T08:35:21.830Z,11.87
2022-10-05T08:37:48.326Z,12.07
2022-10-05T08:40:14.722Z,12.25
2022-10-05T08:42:41.173Z,12.32
2022-10-05T08:45:07.716Z,12.37
2022-10-05T08:47:34.223Z,12.26
2022-10-05T08:50:00.750Z,12.35
2022-10-05T08:52:27.103Z,12.51
2022-10-05T08:54:53.677Z,12.50
2022-10-05T08:57:20.272Z,12.64
2022-10-05T08:59:46.775Z,12.61
2022-10-05T09:02:13.485Z,12.74
2022-10-05T09:04:39.889Z,12.73
2022-10-05T09:07:06.430Z,12.72
2022-10-05T09:09:32.971Z,12.79
2022-10-05T09:11:59.309Z,12.77
2022-10-05T09:14:25.650Z,12.81
2022-10-05T09:16:52.214Z,12.93
2022-10-05T09:19:18.684Z,12.96
2022-10-05T09:21:45.515Z,13.08
2022-10-05T09:24:12.276Z,13.08
2022-10-05T09:26:38.895Z,13.12
2022-10-05T09:29:05.208Z,13.16
2022-10-05T09:31:32.202Z,13.11
2022-10-05T09:33:58.626Z,13.06
2022-10-05T09:36:25.032Z,13.06
2022-10-05T09:38:52.173Z,13.06
2022-10-05T09:41:18.562Z,13.16
2022-10-05T09:43:44.946Z,13.23
2022-10-05T09:46:11.694Z,13.42
2022-10-05T09:48:38.193Z,13.49
2022-10-05T09:51:04.593Z,13.61
2022-10-05T09:53:31.182Z,13.65
2022-10-05T09:55:57.627Z,13.66
2022-10-05T09:58:24.316Z,13.63
2022-10-05T10:00:58.835Z,13.57
2022-10-05T10:03:35.747Z,13.67
2022-10-05T10:06:02.365Z,13.75
2022-10-05T10:08:29.353Z,13.71
2022-10-05T10:10:55.827Z,13.72
2022-10-05T10:13:22.550Z,13.79
2022-10-05T10:15:49.331Z,13.66
2022-10-05T10:18:15.780Z,13.75
2022-10-05T10:20:42.260Z,13.68
2022-10-05T10:23:08.725Z,13.76
2022-10-05T10:25:35.149Z,13.82
2022-10-05T10:28:01.770Z,13.82
2022-10-05T10:30:28.909Z,13.86
2022-10-05T10:32:56.463Z,13.97
2022-10-05T10:35:22.967Z,14.04
2022-10-05T10:37:49.354Z,14.11
2022-10-05T10:40:15.812Z,14.14
2022-10-05T10:42:42.408Z,14.21
2022-10-05T10:45:08.783Z,14.33
2022-10-05T10:47:35.113Z,14.32
2022-10-05T10:50:01.676Z,14.25
2022-10-05T10:52:28.138Z,14.32
2022-10-05T10:54:54.532Z,14.38
2022-10-05T10:57:21.058Z,14.46
2022-10-05T10:59:47.428Z,14.50
2022-10-05T11:02:13.834Z,14.47
2022-10-05T11:04:40.424Z,14.52
2022-10-05T11:07:06.777Z,14.56
2022-10-05T11:09:33.178Z,14.52
2022-10-05T11:11:59.668Z,14.48
2022-10-05T11:14:26.085Z,14.50
2022-10-05T11:16:52.425Z,14.57
2022-10-05T11:19:18.751Z,14.68
2022-10-05T11:21:45.100Z,14.70
2022-10-05T11:24:11.448Z,14.69
2022-10-05T11:26:37.902Z,14.73
2022-10-05T11:29:04.217Z,14.83
2022-10-05T11:31:30.709Z,14.74
2022-10-05T11:33:57.329Z,14.85
2022-10-05T11:36:23.691Z,14.91
2022-10-05T11:38:50.081Z,14.95
2022-10-05T11:41:16.615Z,14.95
2022-10-05T11:43:43.002Z,14.92
2022-10-05T11:46:09.369Z,14.99
2022-10-05T11:48:36.000Z,15.11
2022-10-05T11:51:02.363Z,15.29
2022-10-05T11:53:28.684Z,15.31
2022-10-05T11:55:55.217Z,15.35
2022-10-05T11:58:21.605Z,15.37
2022-10-05T12:00:47.948Z,15.42
2022-10-05T12:03:14.481Z,15.52
2022-10-05T12:05:40.974Z,15.55
2022-10-05T12:08:07.289Z,15.74
2022-10-05T12:10:33.906Z,15.80
2022-10-05T12:13:00.741Z,15.79
2022-10-05T12:15:27.507Z,15.81
2022-10-05T12:17:53.929Z,15.75
2022-10-05T12:20:20.269Z,15.77
2022-10-05T12:22:46.607Z,15.80
2022-10-05T12:25:13.107Z,15.81
2022-10-05T12:27:39.473Z,15.83
2022-10-05T12:30:05.776Z,15.78
2022-10-05T12:32:32.196Z,15.81
2022-10-05T12:35:01.870Z,15.85
2022-10-05T12:37:28.449Z,15.89
2022-10-05T12:39:54.999Z,15.91
2022-10-05T12:42:21.338Z,15.95
2022-10-05T12:44:47.734Z,15.94
2022-10-05T12:47:14.228Z,15.97
2022-10-05T12:49:40.701Z,15.93
2022-10-05T12:52:07.065Z,15.92
2022-10-05T12:54:33.598Z,16.04
2022-10-05T12:56:59.950Z,16.09
2022-10-05T12:59:26.373Z,16.12
2022-10-05T13:01:53.061Z,16.11
2022-10-05T13:04:19.538Z,16.12
2022-10-05T13:06:45.885Z,16.17
2022-10-05T13:09:12.647Z,16.22
2022-10-05T13:11:39.050Z,16.19
2022-10-05T13:14:05.869Z,16.33
2022-10-05T13:16:32.953Z,16.15
2022-10-05T13:18:59.521Z,16.17
2022-10-05T13:21:26.808Z,16.26
2022-10-05T13:23:57.230Z,16.23
2022-10-05T13:26:24.022Z,16.18
2022-10-05T13:28:50.638Z,16.23
2022-10-05T13:31:17.063Z,16.30
2022-10-05T13:33:43.663Z,16.39
2022-10-05T13:36:10.358Z,16.37
2022-10-05T13:38:37.321Z,16.40
2022-10-05T13:41:03.900Z,16.27
2022-10-05T13:43:30.412Z,16.23
2022-10-05T13:45:57.437Z,16.26
2022-10-05T13:48:23.871Z,16.23
2022-10-05T13:50:50.405Z,16.29
2022-10-05T13:53:17.256Z,16.22
2022-10-05T13:55:43.606Z,16.28
2022-10-05T13:58:10.103Z,16.39
2022-10-05T14:00:36.634Z,16.32
2022-10-05T14:03:03.227Z,16.26
2022-10-05T14:05:29.627Z,16.26
2022-10-05T14:07:56.291Z,16.28
2022-10-05T14:10:22.759Z,16.35
2022-10-05T14:12:49.132Z,16.31
2022-10-05T14:15:15.861Z,16.39
2022-10-05T14:17:42.269Z,16.42
2022-10-05T14:20:08.907Z,16.43
2022-10-05T14:22:35.491Z,16.36
2022-10-05T14:25:02.193Z,16.42
2022-10-05T14:27:28.611Z,16.46
2022-10-05T14:29:55.302Z,16.50
2022-10-05T14:32:21.640Z,16.54
2022-10-05T14:34:48.087Z,16.47
2022-10-05T14:37:14.773Z,16.51
2022-10-05T14:39:41.448Z,16.48
2022-10-05T14:42:08.202Z,16.50
2022-10-05T14:44:34.728Z,16.35
2022-10-05T14:47:01.187Z,16.31
2022-10-05T14:49:27.660Z,16.38
2022-10-05T14:51:54.019Z,16.36
2022-10-05T14:54:20.453Z,16.31
2022-10-05T14:56:46.981Z,16.33
2022-10-05T14:59:13.558Z,16.21
2022-10-05T15:01:39.960Z,16.15
2022-10-05T15:04:06.438Z,16.13
2022-10-05T15:06:33.295Z,16.19
2022-10-05T15:08:59.746Z,16.17
2022-10-05T15:11:26.198Z,16.08
2022-10-05T15:13:52.725Z,16.07
2022-10-05T15:16:19.557Z,16.06
2022-10-05T15:18:46.388Z,16.18
2022-10-05T15:23:39.135Z,16.22
2022-10-05T15:26:05.484Z,16.26
2022-10-05T15:28:31.930Z,16.28
2022-10-05T15:30:58.379Z,16.37
2022-10-05T15:33:24.859Z,16.30
2022-10-05T15:35:51.570Z,16.20
2022-10-05T15:38:18.041Z,16.03
2022-10-05T15:40:44.505Z,15.96
2022-10-05T15:43:10.978Z,15.95
2022-10-05T15:45:37.767Z,15.97
2022-10-05T15:48:04.171Z,15.92
2022-10-05T15:50:30.630Z,15.80
2022-10-05T15:52:57.008Z,15.77
2022-10-05T15:55:23.392Z,15.64
2022-10-05T15:57:49.907Z,15.63
2022-10-05T16:00:16.331Z,15.57
2022-10-05T16:02:43.032Z,15.48
2022-10-05T16:05:09.606Z,15.49
2022-10-05T16:07:35.983Z,15.51
2022-10-05T16:10:02.314Z,15.49
2022-10-05T16:12:28.797Z,15.47
2022-10-05T16:14:55.321Z,15.37
2022-10-05T16:17:22.021Z,15.21
2022-10-05T16:19:48.631Z,15.18
2022-10-05T16:22:15.099Z,15.21
2022-10-05T16:24:41.473Z,15.14
2022-10-05T16:27:08.076Z,15.15
2022-10-05T16:29:34.540Z,15.13
2022-10-05T16:32:00.925Z,15.11
2022-10-05T16:34:27.651Z,15.14
2022-10-05T16:36:54.069Z,15.01
2022-10-05T16:39:23.336Z,15.05
2022-10-05T16:41:49.990Z,14.95
2022-10-05T16:44:16.749Z,14.92
2022-10-05T16:46:43.302Z,14.93
2022-10-05T16:49:10.079Z,14.86
2022-10-05T16:51:36.568Z,15.00
2022-10-05T16:54:02.965Z,14.99
2022-10-05T16:56:29.652Z,14.85
2022-10-05T16:58:56.033Z,14.74
2022-10-05T17:01:22.382Z,14.71
2022-10-05T17:03:49.009Z,14.72
2022-10-05T17:06:15.369Z,14.73
2022-10-05T17:08:42.346Z,14.72
2022-10-05T17:11:10.531Z,14.78
2022-10-05T17:13:39.898Z,14.74
2022-10-05T17:16:08.446Z,14.65
2022-10-05T17:18:35.366Z,14.77
2022-10-05T17:21:01.827Z,14.69
2022-10-05T17:23:28.237Z,14.60
2022-10-05T17:25:54.859Z,14.65
2022-10-05T17:28:21.337Z,14.78
2022-10-05T17:30:47.885Z,14.64
2022-10-05T17:33:14.805Z,14.74
2022-10-05T17:35:41.190Z,14.74
2022-10-05T17:38:07.577Z,14.68
2022-10-05T17:40:34.341Z,14.48
2022-10-05T17:43:00.871Z,14.47
2022-10-05T17:45:27.265Z,14.47
2022-10-05T17:47:53.763Z,14.63
2022-10-05T17:50:20.209Z,14.55
2022-10-05T17:52:46.619Z,14.43
2022-10-05T17:55:13.052Z,14.41
2022-10-05T17:57:39.541Z,14.29
2022-10-05T18:00:05.924Z,14.40
2022-10-05T18:02:36.292Z,14.49
2022-10-05T18:05:03.580Z,14.45
2022-10-05T18:07:30.029Z,14.51
2022-10-05T18:09:57.578Z,14.62
2022-10-05T18:12:24.114Z,14.45
2022-10-05T18:14:50.481Z,14.46
2022-10-05T18:17:17.151Z,14.44
2022-10-05T18:19:43.699Z,14.30
2022-10-05T18:22:10.280Z,14.29
2022-10-05T18:24:37.010Z,14.34
2022-10-05T18:27:03.679Z,14.48
2022-10-05T18:29:30.178Z,14.48
2022-10-05T18:31:56.619Z,14.38
2022-10-05T18:34:23.049Z,14.34
2022-10-05T18:36:49.689Z,14.34
2022-10-05T18:39:16.544Z,14.34
2022-10-05T18:41:43.513Z,14.16
2022-10-05T18:44:10.062Z,14.34
2022-10-05T18:46:37.065Z,14.16
2022-10-05T18:49:04.046Z,14.20
2022-10-05T18:51:30.828Z,14.07
2022-10-05T18:53:58.069Z,14.11
2022-10-05T18:56:24.657Z,14.06
2022-10-05T18:58:56.547Z,14.11
2022-10-05T19:01:24.092Z,14.20
2022-10-05T19:03:51.117Z,14.13
2022-10-05T19:06:18.016Z,14.16
2022-10-05T19:08:45.071Z,14.30
2022-10-05T19:11:12.603Z,14.24
2022-10-05T19:13:39.395Z,14.24
2022-10-05T19:16:06.319Z,14.34
2022-10-05T19:18:33.055Z,14.26
2022-10-05T19:21:00.199Z,14.26
2022-10-05T19:23:26.991Z,14.30
2022-10-05T19:25:53.939Z,14.24
2022-10-05T19:28:20.553Z,14.17
2022-10-05T19:30:47.386Z,14.26
2022-10-05T19:33:13.904Z,14.27
2022-10-05T19:35:40.277Z,14.24
2022-10-05T19:38:09.613Z,14.16
2022-10-05T19:40:38.253Z,14.12
2022-10-05T19:43:04.653Z,13.95
2022-10-05T19:45:31.126Z,13.98
2022-10-05T19:47:57.532Z,14.08
2022-10-05T19:50:23.929Z,14.06
2022-10-05T19:52:50.476Z,14.05
2022-10-05T19:55:17.192Z,14.10
2022-10-05T19:57:43.663Z,14.10
2022-10-05T20:00:10.650Z,14.00
2022-10-05T20:02:41.782Z,13.96
2022-10-05T20:05:08.862Z,14.03
2022-10-05T20:07:35.857Z,14.04
2022-10-05T20:10:02.334Z,14.08
2022-10-05T20:12:28.899Z,14.02
2022-10-05T20:14:59.225Z,13.96
2022-10-05T20:17:26.084Z,13.86
2022-10-05T20:19:52.573Z,13.79
2022-10-05T20:22:19.088Z,13.79
2022-10-05T20:24:45.579Z,13.85
2022-10-05T20:27:15.712Z,13.92
2022-10-05T20:29:42.386Z,13.94
2022-10-05T20:32:08.877Z,13.86
2022-10-05T20:34:36.735Z,13.81
2022-10-05T20:37:03.254Z,13.88
2022-10-05T20:39:29.627Z,13.83
2022-10-05T20:41:56.118Z,13.83
2022-10-05T20:44:22.681Z,13.60
2022-10-05T20:46:49.148Z,13.27
2022-10-05T20:49:15.459Z,13.15
2022-10-05T20:51:41.884Z,13.36
2022-10-05T20:54:08.332Z,13.34
2022-10-05T20:56:34.758Z,13.42
2022-10-05T20:59:01.249Z,13.45
2022-10-05T21:01:27.695Z,13.57
2022-10-05T21:03:54.111Z,13.54
2022-10-05T21:06:20.523Z,13.55
2022-10-05T21:08:46.942Z,13.56
2022-10-05T21:11:13.563Z,13.61
2022-10-05T21:13:40.476Z,13.59
2022-10-05T21:16:06.904Z,13.53
2022-10-05T21:18:33.307Z,13.55
2022-10-05T21:21:02.224Z,13.54
2022-10-05T21:23:28.904Z,13.51
2022-10-05T21:25:55.276Z,13.42
2022-10-05T21:28:22.728Z,13.44
2022-10-05T21:30:49.386Z,13.45
2022-10-05T21:33:15.916Z,13.42
2022-10-05T21:35:42.645Z,13.37
2022-10-05T21:38:09.434Z,13.29
2022-10-05T21:40:35.828Z,13.21
2022-10-05T21:43:02.279Z,13.00
2022-10-05T21:45:28.987Z,12.98
2022-10-05T21:47:55.615Z,13.03
2022-10-05T21:50:22.022Z,13.07
2022-10-05T21:52:48.369Z,13.03
2022-10-05T21:55:14.772Z,13.08
2022-10-05T21:57:41.416Z,13.00
2022-10-05T22:00:07.954Z,12.95
2022-10-05T22:02:34.299Z,12.96
2022-10-05T22:05:00.842Z,12.97
2022-10-05T22:07:27.328Z,12.97
2022-10-05T22:09:53.735Z,13.04
2022-10-05T22:12:20.384Z,13.04
2022-10-05T22:14:47.163Z,12.99
2022-10-05T22:17:13.729Z,12.86
2022-10-05T22:19:40.214Z,12.73
2022-10-05T22:22:11.145Z,12.56
2022-10-05T22:24:38.909Z,12.42
2022-10-05T22:27:05.358Z,12.42
2022-10-05T22:29:31.824Z,12.60
2022-10-05T22:31:58.273Z,12.64
2022-10-05T22:34:24.830Z,12.68
2022-10-05T22:36:51.239Z,12.66
2022-10-05T22:39:17.577Z,12.62
2022-10-05T22:41:43.997Z,12.47
2022-10-05T22:44:10.346Z,12.41
2022-10-05T22:46:36.663Z,12.45
2022-10-05T22:49:03.426Z,12.50
2022-10-05T22:51:29.929Z,12.55
2022-10-05T22:53:56.270Z,12.46
2022-10-05T22:56:22.809Z,12.48
2022-10-05T22:58:49.167Z,12.29
2022-10-05T23:01:15.578Z,12.39
2022-10-05T23:03:42.019Z,12.29
2022-10-05T23:06:08.419Z,12.10
2022-10-05T23:08:34.957Z,12.24
2022-10-05T23:11:01.516Z,12.32
2022-10-05T23:13:27.862Z,12.32
2022-10-05T23:15:54.488Z,12.36
2022-10-05T23:18:20.968Z,12.36
2022-10-05T23:20:47.351Z,12.41
2022-10-05T23:23:13.799Z,12.38
2022-10-05T23:25:40.261Z,12.46
2022-10-05T23:28:06.811Z,12.25
2022-10-05T23:30:33.269Z,11.80
2022-10-05T23:32:59.801Z,11.86
2022-10-05T23:35:26.142Z,11.99
2022-10-05T23:37:52.451Z,11.99
2022-10-05T23:40:18.821Z,12.10
2022-10-05T23:42:45.161Z,12.09
2022-10-05T23:45:11.665Z,12.13
2022-10-05T23:47:38.247Z,12.12
2022-10-05T23:50:04.637Z,12.07
2022-10-05T23:52:31.079Z,12.00
2022-10-05T23:54:57.752Z,11.71
2022-10-05T23:57:27.240Z,11.71
2022-10-05T23:59:53.663Z,11.20
